createdAt,value
2023-06-30T00:01:39.070Z,4.18
2023-06-30T00:04:08.519Z,4.03
2023-06-30T00:06:36.382Z,4.05
2023-06-30T00:09:07.187Z,3.88
2023-06-30T00:11:34.904Z,4.28
2023-06-30T00:14:02.977Z,4.00
2023-06-30T00:16:33.051Z,4.00
2023-06-30T00:19:03.980Z,4.00
2023-06-30T00:21:33.327Z,4.05
2023-06-30T00:24:05.307Z,3.97
2023-06-30T00:26:33.412Z,4.00
2023-06-30T00:29:02.515Z,4.80
2023-06-30T00:31:30.509Z,4.35
2023-06-30T00:33:58.433Z,4.20
2023-06-30T00:36:26.421Z,4.53
2023-06-30T00:38:56.294Z,4.35
2023-06-30T00:41:24.409Z,4.47
2023-06-30T00:43:52.255Z,4.30
2023-06-30T00:46:20.349Z,4.20
2023-06-30T00:48:48.286Z,4.57
2023-06-30T00:51:16.181Z,4.53
2023-06-30T00:53:44.069Z,4.78
2023-06-30T00:56:13.485Z,4.90
2023-06-30T00:58:41.737Z,4.97
2023-06-30T01:01:17.874Z,5.00
2023-06-30T01:03:49.481Z,4.80
2023-06-30T01:06:26.618Z,4.72
2023-06-30T01:09:01.132Z,5.03
2023-06-30T01:11:32.108Z,5.15
2023-06-30T01:14:00.765Z,4.95
2023-06-30T01:16:31.189Z,4.90
2023-06-30T01:19:00.303Z,4.93
2023-06-30T01:21:30.014Z,4.72
2023-06-30T01:24:05.088Z,5.13
2023-06-30T01:26:35.391Z,5.00
2023-06-30T01:29:04.297Z,5.10
2023-06-30T01:31:32.986Z,4.85
2023-06-30T01:34:01.214Z,5.13
2023-06-30T01:36:29.059Z,5.47
2023-06-30T01:38:57.041Z,5.15
2023-06-30T01:41:25.126Z,5.15
2023-06-30T01:43:55.546Z,5.35
2023-06-30T01:46:23.735Z,5.28
2023-06-30T01:48:51.679Z,5.22
2023-06-30T01:51:20.629Z,6.13
2023-06-30T01:53:48.709Z,5.57
2023-06-30T01:56:16.597Z,5.35
2023-06-30T01:58:44.803Z,5.38
2023-06-30T02:01:13.882Z,5.57
2023-06-30T02:03:41.821Z,5.75
2023-06-30T02:06:09.721Z,5.95
2023-06-30T02:08:37.443Z,5.63
2023-06-30T02:11:05.177Z,5.68
2023-06-30T02:13:32.949Z,5.85
2023-06-30T02:16:00.715Z,5.43
2023-06-30T02:18:29.903Z,5.65
2023-06-30T02:20:57.614Z,5.78
2023-06-30T02:23:25.503Z,5.78
2023-06-30T02:25:53.292Z,5.65
2023-06-30T02:28:21.413Z,5.93
2023-06-30T02:30:49.274Z,6.00
2023-06-30T02:33:17.193Z,6.07
2023-06-30T02:35:46.498Z,5.53
2023-06-30T02:38:14.610Z,6.15
2023-06-30T02:40:42.365Z,5.63
2023-06-30T02:43:15.354Z,5.80
2023-06-30T02:45:43.607Z,6.32
2023-06-30T02:48:12.802Z,6.35
2023-06-30T02:50:40.684Z,6.68
2023-06-30T02:53:09.911Z,5.57
2023-06-30T02:55:39.307Z,5.78
2023-06-30T02:58:07.281Z,6.57
2023-06-30T03:00:35.773Z,6.35
2023-06-30T03:03:05.724Z,6.03
2023-06-30T03:05:35.282Z,6.05
2023-06-30T03:08:05.070Z,6.63
2023-06-30T03:10:34.216Z,6.18
2023-06-30T03:13:01.999Z,5.82
2023-06-30T03:15:29.743Z,6.05
2023-06-30T03:17:57.660Z,5.82
2023-06-30T03:20:25.991Z,5.78
2023-06-30T03:22:54.702Z,6.15
2023-06-30T03:25:23.450Z,6.07
2023-06-30T03:27:52.603Z,5.80
2023-06-30T03:30:20.591Z,5.93
2023-06-30T03:32:48.404Z,6.40
2023-06-30T03:35:16.447Z,6.45
2023-06-30T03:37:44.284Z,5.53
2023-06-30T03:40:13.193Z,6.22
2023-06-30T03:42:41.010Z,5.50
2023-06-30T03:45:11.705Z,5.32
2023-06-30T03:47:39.476Z,5.65
2023-06-30T03:50:08.212Z,5.88
2023-06-30T03:52:36.622Z,5.57
2023-06-30T03:55:04.993Z,5.15
2023-06-30T03:57:32.825Z,5.78
2023-06-30T04:00:00.620Z,5.03
2023-06-30T04:02:30.334Z,5.20
2023-06-30T04:04:58.232Z,5.28
2023-06-30T04:07:26.643Z,5.10
2023-06-30T04:09:54.539Z,4.90
2023-06-30T04:12:22.356Z,5.13
2023-06-30T04:14:50.538Z,5.15
2023-06-30T04:17:18.707Z,5.18
2023-06-30T04:19:47.841Z,5.50
2023-06-30T04:22:15.692Z,5.15
2023-06-30T04:24:57.750Z,5.30
2023-06-30T04:27:25.504Z,5.32
2023-06-30T04:29:53.422Z,4.88
2023-06-30T04:32:21.307Z,5.10
2023-06-30T04:34:50.526Z,5.00
2023-06-30T04:37:18.342Z,4.97
2023-06-30T04:39:47.340Z,4.80
2023-06-30T04:42:15.715Z,4.97
2023-06-30T04:44:43.515Z,4.85
2023-06-30T04:47:11.268Z,4.40
2023-06-30T04:49:39.220Z,4.57
2023-06-30T04:52:09.304Z,4.68
2023-06-30T04:54:37.064Z,5.03
2023-06-30T04:57:05.286Z,4.10
2023-06-30T04:59:33.214Z,4.13
2023-06-30T05:02:01.610Z,4.30
2023-06-30T05:04:29.548Z,4.72
2023-06-30T05:06:57.379Z,4.22
2023-06-30T05:09:26.655Z,4.60
2023-06-30T05:11:54.551Z,4.57
2023-06-30T05:14:22.527Z,4.35
2023-06-30T05:16:50.339Z,4.20
2023-06-30T05:19:18.227Z,4.78
2023-06-30T05:21:46.074Z,4.30
2023-06-30T05:24:13.895Z,3.88
2023-06-30T05:26:43.511Z,4.10
2023-06-30T05:29:12.133Z,4.30
2023-06-30T05:31:39.885Z,4.22
2023-06-30T05:34:07.640Z,3.60
2023-06-30T05:36:37.475Z,4.00
2023-06-30T05:39:05.466Z,4.22
2023-06-30T05:41:33.243Z,4.07
2023-06-30T05:44:02.531Z,3.80
2023-06-30T05:46:30.310Z,3.92
2023-06-30T05:48:58.144Z,4.13
2023-06-30T05:51:25.986Z,4.07
2023-06-30T05:53:53.830Z,4.15
2023-06-30T05:56:21.671Z,3.88
2023-06-30T05:58:49.578Z,3.88
2023-06-30T06:01:19.286Z,3.80
2023-06-30T06:03:47.225Z,3.95
2023-06-30T06:06:15.571Z,3.70
2023-06-30T06:08:47.016Z,3.40
2023-06-30T06:11:15.330Z,3.50
2023-06-30T06:13:43.201Z,3.40
2023-06-30T06:16:11.097Z,3.28
2023-06-30T06:18:40.260Z,3.70
2023-06-30T06:21:08.669Z,3.50
2023-06-30T06:23:36.756Z,3.33
2023-06-30T06:26:04.545Z,3.65
2023-06-30T06:28:32.389Z,3.47
2023-06-30T06:31:00.520Z,3.50
2023-06-30T06:33:28.277Z,3.30
2023-06-30T06:35:57.486Z,3.25
2023-06-30T06:38:25.327Z,3.33
2023-06-30T06:40:53.156Z,4.00
2023-06-30T06:43:25.415Z,3.67
2023-06-30T06:45:53.308Z,3.75
2023-06-30T06:48:23.290Z,3.58
2023-06-30T06:50:52.514Z,3.40
2023-06-30T06:53:23.912Z,3.78
2023-06-30T06:55:53.054Z,3.60
2023-06-30T06:58:21.571Z,3.25
2023-06-30T07:00:51.725Z,3.17
2023-06-30T07:03:21.224Z,3.53
2023-06-30T07:05:49.339Z,3.42
2023-06-30T07:08:19.942Z,3.40
2023-06-30T07:10:51.239Z,3.60
2023-06-30T07:13:21.008Z,3.33
2023-06-30T07:15:50.070Z,3.35
2023-06-30T07:18:19.665Z,3.13
2023-06-30T07:20:48.726Z,3.40
2023-06-30T07:23:16.911Z,3.20
2023-06-30T07:25:45.247Z,2.85
2023-06-30T07:28:15.146Z,3.10
2023-06-30T07:30:46.120Z,3.50
2023-06-30T07:33:14.327Z,3.35
2023-06-30T07:35:42.728Z,3.58
2023-06-30T07:38:10.658Z,3.28
2023-06-30T07:40:54.030Z,3.30
2023-06-30T07:43:25.654Z,3.28
2023-06-30T07:45:53.596Z,3.10
2023-06-30T07:48:22.100Z,3.50
2023-06-30T07:51:07.001Z,2.97
2023-06-30T07:53:39.496Z,2.88
2023-06-30T07:56:07.466Z,3.20
2023-06-30T07:58:36.701Z,2.72
2023-06-30T08:01:04.879Z,3.10
2023-06-30T08:03:32.853Z,3.03
2023-06-30T08:06:01.070Z,2.40
2023-06-30T08:08:29.360Z,2.40
2023-06-30T08:10:57.331Z,2.67
2023-06-30T08:13:25.408Z,2.40
2023-06-30T08:15:54.985Z,2.45
2023-06-30T08:18:31.705Z,2.20
2023-06-30T08:21:02.074Z,2.80
2023-06-30T08:23:30.070Z,2.80
2023-06-30T08:25:57.834Z,3.13
2023-06-30T08:28:25.886Z,3.47
2023-06-30T08:30:55.461Z,3.85
2023-06-30T08:33:39.907Z,4.65
2023-06-30T08:36:09.349Z,5.18
2023-06-30T08:38:37.102Z,4.65
2023-06-30T08:41:05.015Z,3.67
2023-06-30T08:43:33.840Z,4.22
2023-06-30T08:46:05.986Z,4.10
2023-06-30T08:48:33.985Z,3.60
2023-06-30T08:51:02.764Z,3.47
2023-06-30T08:53:32.768Z,3.83
2023-06-30T08:56:01.496Z,3.50
2023-06-30T08:58:29.802Z,3.10
2023-06-30T09:00:57.965Z,3.75
2023-06-30T09:03:28.110Z,3.10
2023-06-30T09:05:58.093Z,3.30
2023-06-30T09:08:30.684Z,3.22
2023-06-30T09:10:59.754Z,2.90
2023-06-30T09:13:28.490Z,3.08
2023-06-30T09:15:59.964Z,3.08
2023-06-30T09:18:29.619Z,2.90
2023-06-30T09:20:57.638Z,3.13
2023-06-30T09:23:26.411Z,2.63
2023-06-30T09:25:54.588Z,2.78
2023-06-30T09:28:22.702Z,3.10
2023-06-30T09:30:50.507Z,3.40
2023-06-30T09:33:20.688Z,3.63
2023-06-30T09:35:50.359Z,3.28
2023-06-30T09:38:19.590Z,3.28
2023-06-30T09:40:49.019Z,3.00
2023-06-30T09:43:18.845Z,3.33
2023-06-30T09:45:48.864Z,3.13
2023-06-30T09:48:41.427Z,3.00
2023-06-30T09:51:36.685Z,3.00
2023-06-30T09:54:10.496Z,2.92
2023-06-30T09:56:42.363Z,2.60
2023-06-30T09:59:10.435Z,2.55
2023-06-30T10:01:38.308Z,2.47
2023-06-30T10:04:06.626Z,2.50
2023-06-30T10:06:38.183Z,2.38
2023-06-30T10:09:07.613Z,2.20
2023-06-30T10:11:37.468Z,2.28
2023-06-30T10:14:06.511Z,2.58
2023-06-30T10:16:34.802Z,2.50
2023-06-30T10:19:04.688Z,2.40
2023-06-30T10:21:32.632Z,2.80
2023-06-30T10:24:04.447Z,2.40
2023-06-30T10:26:34.625Z,2.35
2023-06-30T10:29:03.199Z,2.25
2023-06-30T10:31:31.278Z,2.20
2023-06-30T10:33:59.145Z,2.20
2023-06-30T10:36:27.754Z,2.28
2023-06-30T10:38:56.240Z,2.28
2023-06-30T10:41:25.512Z,2.95
2023-06-30T10:44:12.027Z,2.47
2023-06-30T10:46:46.167Z,2.60
2023-06-30T10:49:30.706Z,2.70
2023-06-30T10:52:00.667Z,2.53
2023-06-30T10:54:29.564Z,2.60
2023-06-30T10:57:10.960Z,2.30
2023-06-30T10:59:40.980Z,2.22
2023-06-30T11:02:15.963Z,2.40
2023-06-30T11:04:44.874Z,2.40
2023-06-30T11:07:17.865Z,2.20
2023-06-30T11:10:06.173Z,2.30
2023-06-30T11:12:56.050Z,2.30
2023-06-30T11:15:35.930Z,2.40
2023-06-30T11:18:07.133Z,2.17
2023-06-30T11:20:35.625Z,2.40
2023-06-30T11:23:05.099Z,2.30
2023-06-30T11:25:34.803Z,2.20
2023-06-30T11:28:05.893Z,2.55
2023-06-30T11:30:38.423Z,2.47
2023-06-30T11:33:07.462Z,2.50
2023-06-30T11:35:36.070Z,2.60
2023-06-30T11:38:04.631Z,2.70
2023-06-30T11:40:32.626Z,2.42
2023-06-30T11:43:03.982Z,2.40
2023-06-30T11:45:33.918Z,2.50
2023-06-30T11:48:02.472Z,2.40
2023-06-30T11:50:31.427Z,2.53
2023-06-30T11:53:00.306Z,2.35
2023-06-30T11:55:29.283Z,2.40
2023-06-30T11:57:57.531Z,2.70
2023-06-30T12:00:26.444Z,2.42
2023-06-30T12:02:55.762Z,2.72
2023-06-30T12:05:26.653Z,2.33
2023-06-30T12:07:57.621Z,2.40
2023-06-30T12:10:42.434Z,2.20
2023-06-30T12:13:12.685Z,2.28
2023-06-30T12:15:40.571Z,2.15
2023-06-30T12:18:10.558Z,2.22
2023-06-30T12:20:42.022Z,2.00
2023-06-30T12:23:09.949Z,2.17
2023-06-30T12:25:38.524Z,2.22
2023-06-30T12:28:07.003Z,2.30
2023-06-30T12:30:35.523Z,2.47
2023-06-30T12:33:04.975Z,2.40
2023-06-30T12:35:38.442Z,2.40
2023-06-30T12:38:09.060Z,2.22
2023-06-30T12:40:37.210Z,2.60
2023-06-30T12:43:06.311Z,2.42
2023-06-30T12:45:35.459Z,2.67
2023-06-30T12:48:04.024Z,3.28
2023-06-30T12:50:31.891Z,2.67
2023-06-30T12:53:01.773Z,2.13
2023-06-30T12:55:29.974Z,2.05
2023-06-30T12:57:57.900Z,2.15
2023-06-30T13:00:25.696Z,2.25
2023-06-30T13:02:53.554Z,2.20
2023-06-30T13:05:21.661Z,2.10
2023-06-30T13:07:49.425Z,2.45
2023-06-30T13:10:18.781Z,2.08
2023-06-30T13:12:46.919Z,2.58
2023-06-30T13:15:14.728Z,2.40
2023-06-30T13:17:43.157Z,2.15
2023-06-30T13:20:12.025Z,2.10
2023-06-30T13:22:50.779Z,2.40
2023-06-30T13:25:25.330Z,2.50
2023-06-30T13:27:53.148Z,2.67
2023-06-30T13:30:21.013Z,2.30
2023-06-30T13:32:48.882Z,2.50
2023-06-30T13:35:16.735Z,2.47
2023-06-30T13:37:44.576Z,2.35
2023-06-30T14:03:41.634Z,1.80
2023-06-30T14:06:09.602Z,1.70
2023-06-30T14:08:37.367Z,1.77
2023-06-30T14:11:05.128Z,1.70
2023-06-30T14:13:34.367Z,1.70
2023-06-30T14:16:02.159Z,1.85
2023-06-30T14:18:30.154Z,1.60
2023-06-30T14:20:57.957Z,1.75
2023-06-30T14:23:25.793Z,2.03
2023-06-30T14:25:53.499Z,2.08
2023-06-30T14:28:21.307Z,2.22
2023-06-30T14:30:50.464Z,2.10
2023-06-30T14:33:18.203Z,2.35
2023-06-30T14:35:46.138Z,2.85
2023-06-30T14:38:14.194Z,2.58
2023-06-30T14:40:42.225Z,2.90
2023-06-30T14:43:09.976Z,3.17
2023-06-30T14:45:37.693Z,2.90
2023-06-30T14:48:07.543Z,3.22
2023-06-30T14:50:37.307Z,3.40
2023-06-30T14:53:05.138Z,3.08
2023-06-30T14:55:32.936Z,3.33
2023-06-30T14:58:00.888Z,3.05
2023-06-30T15:00:28.719Z,3.80
2023-06-30T15:02:57.044Z,4.07
2023-06-30T15:05:26.741Z,3.70
2023-06-30T15:07:56.725Z,3.85
2023-06-30T15:10:24.684Z,3.97
2023-06-30T15:12:52.571Z,4.75
2023-06-30T15:15:20.536Z,4.63
2023-06-30T15:17:48.556Z,4.82
2023-06-30T15:20:16.567Z,4.68
2023-06-30T15:22:45.740Z,4.82
2023-06-30T15:25:24.350Z,5.30
2023-06-30T15:27:52.265Z,4.82
2023-06-30T15:30:20.764Z,5.03
2023-06-30T15:32:49.152Z,4.88
2023-06-30T15:35:17.238Z,5.25
2023-06-30T15:37:46.486Z,5.40
2023-06-30T15:40:15.020Z,5.68
2023-06-30T15:42:42.807Z,5.57
2023-06-30T15:45:11.481Z,5.32
2023-06-30T15:47:39.256Z,5.50
2023-06-30T15:50:11.549Z,5.63
2023-06-30T15:52:39.420Z,5.55
2023-06-30T15:55:10.798Z,6.50
2023-06-30T15:57:39.380Z,6.00
2023-06-30T16:00:09.211Z,6.25
2023-06-30T16:02:37.559Z,6.78
2023-06-30T16:05:08.236Z,6.60
2023-06-30T16:07:36.507Z,8.30
2023-06-30T16:10:05.901Z,8.32
2023-06-30T16:12:38.211Z,5.68
2023-06-30T16:15:09.052Z,5.93
2023-06-30T16:17:37.140Z,4.85
2023-06-30T16:20:06.088Z,5.20
2023-06-30T16:22:33.935Z,4.40
2023-06-30T16:25:01.820Z,5.05
2023-06-30T16:27:29.782Z,4.50
2023-06-30T16:30:20.812Z,4.30
2023-06-30T16:32:48.761Z,3.97
2023-06-30T16:35:16.969Z,3.20
2023-06-30T16:37:45.238Z,4.90
2023-06-30T16:40:13.560Z,3.80
2023-06-30T16:42:42.484Z,3.50
2023-06-30T16:45:12.806Z,3.90
2023-06-30T16:47:41.414Z,4.13
2023-06-30T16:50:10.250Z,3.70
2023-06-30T16:52:38.393Z,3.65
2023-06-30T16:55:07.813Z,3.97
2023-06-30T16:57:35.554Z,4.10
2023-06-30T17:00:06.052Z,4.25
2023-06-30T17:02:35.495Z,4.18
2023-06-30T17:05:03.847Z,4.65
2023-06-30T17:07:31.836Z,4.75
2023-06-30T17:09:59.820Z,4.82
2023-06-30T17:12:27.754Z,4.63
2023-06-30T17:14:55.737Z,5.43
2023-06-30T17:17:26.055Z,5.15
2023-06-30T17:19:55.771Z,5.10
2023-06-30T17:22:23.886Z,5.28
2023-06-30T17:24:54.201Z,5.10
2023-06-30T17:27:23.801Z,5.20
2023-06-30T17:29:51.532Z,5.40
2023-06-30T17:32:19.496Z,5.40
2023-06-30T17:34:47.831Z,5.40
2023-06-30T17:37:17.327Z,6.10
2023-06-30T17:39:45.162Z,5.20
2023-06-30T17:42:12.943Z,5.32
2023-06-30T17:44:42.485Z,5.63
2023-06-30T17:47:10.592Z,5.50
2023-06-30T17:49:38.520Z,5.40
2023-06-30T17:52:06.649Z,6.13
2023-06-30T17:54:36.139Z,5.95
2023-06-30T17:57:03.938Z,6.05
2023-06-30T17:59:32.673Z,5.63
2023-06-30T18:02:01.481Z,6.10
2023-06-30T18:04:30.249Z,6.40
2023-06-30T18:07:07.944Z,5.95
2023-06-30T18:09:39.446Z,5.90
2023-06-30T18:12:08.761Z,5.72
2023-06-30T18:14:38.360Z,5.97
2023-06-30T18:17:06.840Z,7.55
2023-06-30T18:19:34.669Z,6.10
2023-06-30T18:22:02.632Z,6.70
2023-06-30T18:24:30.708Z,6.38
2023-06-30T18:26:59.914Z,6.25
2023-06-30T18:29:27.796Z,6.40
2023-06-30T18:31:59.170Z,6.50
2023-06-30T18:34:28.377Z,6.70
2023-06-30T18:36:56.202Z,6.75
2023-06-30T18:39:23.970Z,6.32
2023-06-30T18:41:51.798Z,6.38
2023-06-30T18:44:21.029Z,6.78
2023-06-30T18:46:48.805Z,6.97
2023-06-30T18:49:16.650Z,6.68
2023-06-30T18:51:44.512Z,6.53
2023-06-30T18:54:12.510Z,7.18
2023-06-30T18:56:40.356Z,7.25
2023-06-30T18:59:08.160Z,6.38
2023-06-30T19:01:37.414Z,7.97
2023-06-30T19:04:06.826Z,7.10
2023-06-30T19:06:34.869Z,7.20
2023-06-30T19:09:02.636Z,6.95
2023-06-30T19:11:30.404Z,7.35
2023-06-30T19:13:58.302Z,7.90
2023-06-30T19:16:26.188Z,7.45
2023-06-30T19:18:55.785Z,7.10
2023-06-30T19:21:23.867Z,7.55
2023-06-30T19:23:51.633Z,8.07
2023-06-30T19:26:19.451Z,9.23
2023-06-30T19:28:47.268Z,7.88
2023-06-30T19:31:15.151Z,8.52
2023-06-30T19:33:42.986Z,8.05
2023-06-30T19:36:12.128Z,7.85
2023-06-30T19:38:39.921Z,7.97
2023-06-30T19:41:07.748Z,8.43
2023-06-30T19:43:35.513Z,8.77
2023-06-30T19:46:03.399Z,8.93
2023-06-30T19:48:31.290Z,8.68
2023-06-30T19:50:59.092Z,8.73
2023-06-30T19:53:28.285Z,9.65
2023-06-30T19:55:56.192Z,8.80
2023-06-30T19:58:23.947Z,9.15
2023-06-30T20:00:51.761Z,9.40
2023-06-30T20:03:19.962Z,9.38
2023-06-30T20:05:48.098Z,8.82
2023-06-30T20:08:16.095Z,9.57
2023-06-30T20:10:45.438Z,9.35
2023-06-30T20:13:13.168Z,9.15
2023-06-30T20:15:40.976Z,10.50
2023-06-30T20:18:08.891Z,9.80
2023-06-30T20:20:36.730Z,9.57
2023-06-30T20:23:04.614Z,9.55
2023-06-30T20:25:32.543Z,9.52
2023-06-30T20:28:01.689Z,10.05
2023-06-30T20:30:29.469Z,10.00
2023-06-30T20:32:57.354Z,9.75
2023-06-30T20:35:25.192Z,10.23
2023-06-30T20:37:53.004Z,10.02
2023-06-30T20:40:21.057Z,10.88
2023-06-30T20:42:48.925Z,9.93
2023-06-30T20:45:18.179Z,9.52
2023-06-30T20:47:46.006Z,10.60
2023-06-30T20:50:13.878Z,9.85
2023-06-30T20:52:41.857Z,10.18
2023-06-30T20:55:10.351Z,10.80
2023-06-30T20:57:38.119Z,10.07
2023-06-30T21:00:06.604Z,10.68
2023-06-30T21:02:36.921Z,10.25
2023-06-30T21:05:05.206Z,9.30
2023-06-30T21:07:32.993Z,10.77
2023-06-30T21:10:00.763Z,10.18
2023-06-30T21:12:28.699Z,11.25
2023-06-30T21:14:56.548Z,10.20
2023-06-30T21:17:24.361Z,10.68
2023-06-30T21:19:53.552Z,9.70
2023-06-30T21:22:21.335Z,9.50
2023-06-30T21:24:49.078Z,9.55
2023-06-30T21:27:16.917Z,9.50
2023-06-30T21:29:44.856Z,9.02
2023-06-30T21:32:12.711Z,9.00
2023-06-30T21:34:40.727Z,9.15
2023-06-30T21:37:09.825Z,8.85
2023-06-30T21:39:37.649Z,9.02
2023-06-30T21:42:05.900Z,9.38
2023-06-30T21:44:33.617Z,9.63
2023-06-30T21:47:01.437Z,8.20
2023-06-30T21:49:29.260Z,9.40
2023-06-30T21:51:56.997Z,9.98
2023-06-30T21:54:46.380Z,8.25
2023-06-30T21:57:14.051Z,7.90
2023-06-30T21:59:41.826Z,7.80
2023-06-30T22:02:10.105Z,8.32
2023-06-30T22:04:37.937Z,7.53
2023-06-30T22:07:06.232Z,7.25
2023-06-30T22:09:35.353Z,6.43
2023-06-30T22:12:03.089Z,7.00
2023-06-30T22:14:30.894Z,6.72
2023-06-30T22:16:58.666Z,6.53
2023-06-30T22:19:26.394Z,6.20
2023-06-30T22:21:54.096Z,5.78
2023-06-30T22:24:21.876Z,6.18
2023-06-30T22:26:55.269Z,5.85
2023-06-30T22:29:23.051Z,6.13
2023-06-30T22:31:50.811Z,5.68
2023-06-30T22:34:18.567Z,5.55
2023-06-30T22:36:46.281Z,5.75
2023-06-30T22:39:14.172Z,5.82
2023-06-30T22:41:41.946Z,5.70
2023-06-30T22:44:11.043Z,5.68
2023-06-30T22:46:38.983Z,6.13
2023-06-30T22:49:06.748Z,5.80
2023-06-30T22:51:34.630Z,5.90
2023-06-30T22:54:02.476Z,6.68
2023-06-30T22:56:30.238Z,5.60
2023-06-30T22:58:57.997Z,6.10
2023-06-30T23:01:27.229Z,6.07
2023-06-30T23:03:55.041Z,5.45
2023-06-30T23:06:22.795Z,5.60
2023-06-30T23:08:50.588Z,5.28
2023-06-30T23:11:18.370Z,5.35
2023-06-30T23:13:46.173Z,5.22
2023-06-30T23:16:14.175Z,5.95
2023-06-30T23:18:43.310Z,5.72
2023-06-30T23:21:11.788Z,6.30
2023-06-30T23:23:41.694Z,5.57
2023-06-30T23:26:11.204Z,5.35
2023-06-30T23:28:39.187Z,5.20
2023-06-30T23:31:06.955Z,5.38
2023-06-30T23:33:34.732Z,5.60
2023-06-30T23:36:03.970Z,5.40
2023-06-30T23:38:31.836Z,5.43
2023-06-30T23:40:59.721Z,5.18
2023-06-30T23:43:27.561Z,4.68
2023-06-30T23:45:55.401Z,5.47
2023-06-30T23:48:23.252Z,5.38
2023-06-30T23:50:51.016Z,5.40
2023-06-30T23:53:20.244Z,5.03
2023-06-30T23:55:48.317Z,5.45
2023-06-30T23:58:16.464Z,4.93
